Grand Lake, CO

6:17 PM MDT on September 23, 2014 (GMT -0600)
Granby Ranch | Change Station
CLOSE
Current Station
Personal Weather Station
Location: Granby, CO
Elevation: 8360 ft
Nearby Weather Stations

Elev 8360 ft 40.05 °N, 105.91 °W | Updated 2 minutes ago

Overcast
Overcast
57.4 °F
Feels Like 57.4 °F
N
1.0
Wind Variable Wind from SE
Gusts 5.0 mph

Today
High -- | Low -- °F
--% Chance of Precip.
Yesterday
High -- | Low -- °F
Precip. -- in
6:52 AM 6:58 PM
Waning Crescent, 0% visible
Pressure 30.31 in
Visibility 10.0 miles
Clouds Overcast 10000 ft
Dew Point 45 °F
Humidity 64%
Rainfall 0.05 in
Snow Depth 1 in , 0 in , 0 in
UV 0 out of 12
Pollen 6.10 out of 12
Air Quality Not available.
Flu Activity Not available.
METAR K20V 232355Z AUTO 30004KT 10SM OVC100 20/05 A3031 RMK AO2

More Conditions Fewer Conditions

Pressure 30.31 in
Visibility 10.0 miles
Clouds Overcast 10000 ft
Dew Point 45 °F
Humidity 64%
Rainfall 0.05 in
Snow Depth 1 in , 0 in , 0 in
UV 0 out of 12
Pollen 6.10 out of 12
Air Quality Not available.
Flu Activity Not available.
METAR K20V 232355Z AUTO 30004KT 10SM OVC100 20/05 A3031 RMK AO2

More Conditions Fewer Conditions

10-Day Weather Forecast

Almanac

Astronomy

Sep. 23, 2014 Rise Set
Actual Time 6:52 AM MDT 6:58 PM MDT
Civil Twilight 6:25 AM MDT 7:25 PM MDT
Nautical Twilight 5:53 AM MDT 7:57 PM MDT
Astronomical Twilight 5:21 AM MDT 8:29 PM MDT
Moon 6:18 AM MDT (9/23) 6:39 PM MDT (9/23)
Length of Visible Light 13h 00m
Length of Day
12h 06m
Tomorrow will be 2m 37s shorter.
Waning Crescent, 0% of the Moon is Illuminated
Today
Waning Crescent
Sep 24
New
Oct 1
First Quarter
Oct 8
Full
Oct 15
Last Quarter

Today's Extremes

State Highs State Lows

Community

WunderPhotos

Upload Photos

1,755,828 photos uploaded!

WunderBlogs® & News

Nearby

Snow Depth

Station Depth Elevation
Loveland Basin 1 in 11400 ft
Arapaho Ridge 0 in 10960 ft
Zirkel 0 in 9340 ft
Willow Creek Pass 0 in 9540 ft
Lost Dog 0 in 9320 ft

Earthquake Activity

City Distance Mag. Time & Date
No recent earthquake activity has been reported nearby.
Minimum magnitude displayed is 2.5.

Coastal Water Temperatures

Place Temperature
No Stations Reporting

Nearby Weather Stations